sensor_id;sensor_type;location;lat;lon;timestamp;pressure;altitude;pressure_sealevel;temperature;humidity
44839;BME280;30576;42.098;24.876;2023-01-15T00:00:12;100348.94;;;7.25;94.71
44839;BME280;30576;42.098;24.876;2023-01-15T00:02:37;100355.94;;;7.22;94.62
44839;BME280;30576;42.098;24.876;2023-01-15T00:05:02;100353.34;;;7.28;94.36
44839;BME280;30576;42.098;24.876;2023-01-15T00:10:30;100358.88;;;7.59;92.33
44839;BME280;30576;42.098;24.876;2023-01-15T00:12:56;100364.09;;;7.57;92.06
44839;BME280;30576;42.098;24.876;2023-01-15T00:15:21;100366.84;;;7.73;91.49
44839;BME280;30576;42.098;24.876;2023-01-15T00:17:47;100366.91;;;7.82;91.29
44839;BME280;30576;42.098;24.876;2023-01-15T00:20:12;100366.94;;;7.86;90.21
44839;BME280;30576;42.098;24.876;2023-01-15T00:22:37;100366.94;;;7.85;89.72
44839;BME280;30576;42.098;24.876;2023-01-15T00:25:03;100367.00;;;7.96;89.88
44839;BME280;30576;42.098;24.876;2023-01-15T00:27:47;100370.50;;;7.98;89.13
44839;BME280;30576;42.098;24.876;2023-01-15T00:30:13;100372.28;;;7.97;88.64
44839;BME280;30576;42.098;24.876;2023-01-15T00:32:39;100374.91;;;8.00;88.57
44839;BME280;30576;42.098;24.876;2023-01-15T00:35:05;100369.56;;;7.86;88.23
44839;BME280;30576;42.098;24.876;2023-01-15T00:37:30;100371.25;;;7.80;89.61
44839;BME280;30576;42.098;24.876;2023-01-15T00:39:56;100368.69;;;7.89;89.16
44839;BME280;30576;42.098;24.876;2023-01-15T00:42:21;100362.59;;;7.95;88.39
44839;BME280;30576;42.098;24.876;2023-01-15T00:44:46;100365.22;;;7.90;88.27
44839;BME280;30576;42.098;24.876;2023-01-15T00:47:11;100360.78;;;7.84;89.12
44839;BME280;30576;42.098;24.876;2023-01-15T00:49:40;100362.53;;;7.82;88.69
44839;BME280;30576;42.098;24.876;2023-01-15T00:52:05;100364.19;;;7.69;89.62
44839;BME280;30576;42.098;24.876;2023-01-15T00:54:31;100362.47;;;7.75;89.75
44839;BME280;30576;42.098;24.876;2023-01-15T00:56:57;100357.97;;;7.58;90.40
44839;BME280;30576;42.098;24.876;2023-01-15T00:59:23;100360.56;;;7.55;90.42
44839;BME280;30576;42.098;24.876;2023-01-15T01:01:48;100356.31;;;7.69;89.71
44839;BME280;30576;42.098;24.876;2023-01-15T01:04:14;100364.94;;;7.53;90.43
44839;BME280;30576;42.098;24.876;2023-01-15T01:06:39;100360.59;;;7.58;90.42
44839;BME280;30576;42.098;24.876;2023-01-15T01:12:07;100357.84;;;7.43;91.00
44839;BME280;30576;42.098;24.876;2023-01-15T01:14:32;100360.59;;;7.60;90.82
44839;BME280;30576;42.098;24.876;2023-01-15T01:16:58;100364.19;;;7.68;89.92
44839;BME280;30576;42.098;24.876;2023-01-15T01:22:26;100359.88;;;7.78;89.10
44839;BME280;30576;42.098;24.876;2023-01-15T01:24:51;100351.91;;;7.67;89.32
44839;BME280;30576;42.098;24.876;2023-01-15T01:27:17;100359.78;;;7.67;89.60
44839;BME280;30576;42.098;24.876;2023-01-15T01:29:43;100356.28;;;7.65;89.95
44839;BME280;30576;42.098;24.876;2023-01-15T01:32:08;100349.28;;;7.68;90.15
44839;BME280;30576;42.098;24.876;2023-01-15T01:34:34;100357.22;;;7.73;89.42
44839;BME280;30576;42.098;24.876;2023-01-15T01:40:02;100353.63;;;7.62;89.29
44839;BME280;30576;42.098;24.876;2023-01-15T01:42:27;100350.03;;;7.50;90.19
44839;BME280;30576;42.098;24.876;2023-01-15T01:45:04;100353.53;;;7.48;90.62
44839;BME280;30576;42.098;24.876;2023-01-15T01:50:39;100354.16;;;7.22;91.95
44839;BME280;30576;42.098;24.876;2023-01-15T01:53:09;100356.78;;;7.21;91.86
44839;BME280;30576;42.098;24.876;2023-01-15T01:55:36;100353.22;;;7.14;92.59
44839;BME280;30576;42.098;24.876;2023-01-15T01:58:03;100347.22;;;7.27;92.39
44839;BME280;30576;42.098;24.876;2023-01-15T02:00:29;100356.94;;;7.39;91.04
44839;BME280;30576;42.098;24.876;2023-01-15T02:02:56;100354.25;;;7.31;91.21
44839;BME280;30576;42.098;24.876;2023-01-15T02:05:29;100346.47;;;7.44;91.04
44839;BME280;30576;42.098;24.876;2023-01-15T02:07:55;100348.25;;;7.45;91.36
44839;BME280;30576;42.098;24.876;2023-01-15T02:10:20;100346.47;;;7.44;90.28
44839;BME280;30576;42.098;24.876;2023-01-15T02:12:48;100351.69;;;7.39;90.35
44839;BME280;30576;42.098;24.876;2023-01-15T02:15:18;100351.56;;;7.25;90.57
44839;BME280;30576;42.098;24.876;2023-01-15T02:20:40;100347.22;;;7.27;90.59
44839;BME280;30576;42.098;24.876;2023-01-15T02:25:49;100349.06;;;7.39;90.65
44839;BME280;30576;42.098;24.876;2023-01-15T02:33:53;100338.41;;;7.21;90.32
44839;BME280;30576;42.098;24.876;2023-01-15T02:36:21;100336.72;;;7.27;91.04
44839;BME280;30576;42.098;24.876;2023-01-15T02:38:48;100335.88;;;7.31;90.12
44839;BME280;30576;42.098;24.876;2023-01-15T02:41:17;100339.31;;;7.26;90.05
44839;BME280;30576;42.098;24.876;2023-01-15T02:43:46;100338.47;;;7.28;90.36
44839;BME280;30576;42.098;24.876;2023-01-15T02:49:17;100340.09;;;7.11;90.86
44839;BME280;30576;42.098;24.876;2023-01-15T02:52:30;100334.63;;;6.91;91.79
44839;BME280;30576;42.098;24.876;2023-01-15T02:54:30;100337.19;;;6.85;92.85
44839;BME280;30576;42.098;24.876;2023-01-15T02:56:59;100339.63;;;6.66;93.63
44839;BME280;30576;42.098;24.876;2023-01-15T02:59:28;100336.22;;;6.76;93.57
44839;BME280;30576;42.098;24.876;2023-01-15T03:01:56;100343.34;;;6.88;93.70
44839;BME280;30576;42.098;24.876;2023-01-15T03:06:53;100340.75;;;6.91;92.72
44839;BME280;30576;42.098;24.876;2023-01-15T03:09:21;100344.06;;;6.73;93.63
44839;BME280;30576;42.098;24.876;2023-01-15T03:11:48;100346.72;;;6.78;94.18
44839;BME280;30576;42.098;24.876;2023-01-15T03:17:23;100350.16;;;6.69;94.53
44839;BME280;30576;42.098;24.876;2023-01-15T03:19:49;100343.06;;;6.63;94.82
44839;BME280;30576;42.098;24.876;2023-01-15T03:24:54;100345.81;;;6.73;94.86
44839;BME280;30576;42.098;24.876;2023-01-15T03:27:21;100337.72;;;6.54;96.06
44839;BME280;30576;42.098;24.876;2023-01-15T03:29:48;100341.06;;;6.41;97.08
44839;BME280;30576;42.098;24.876;2023-01-15T03:32:15;100337.75;;;6.56;97.22
44839;BME280;30576;42.098;24.876;2023-01-15T03:34:43;100337.81;;;6.60;96.25
44839;BME280;30576;42.098;24.876;2023-01-15T03:37:09;100328.34;;;6.75;95.54
44839;BME280;30576;42.098;24.876;2023-01-15T03:39:35;100327.50;;;6.79;94.11
44839;BME280;30576;42.098;24.876;2023-01-15T03:42:13;100324.88;;;6.79;94.31
44839;BME280;30576;42.098;24.876;2023-01-15T03:47:17;100317.78;;;6.70;94.96
44839;BME280;30576;42.098;24.876;2023-01-15T03:55:09;100321.16;;;6.55;95.94
44839;BME280;30576;42.098;24.876;2023-01-15T04:00:03;100327.78;;;7.07;93.58
44839;BME280;30576;42.098;24.876;2023-01-15T04:02:31;100336.59;;;7.15;92.60
44839;BME280;30576;42.098;24.876;2023-01-15T04:04:57;100339.28;;;7.23;91.19
44839;BME280;30576;42.098;24.876;2023-01-15T04:07:23;100345.50;;;7.29;90.65
44839;BME280;30576;42.098;24.876;2023-01-15T04:09:49;100344.78;;;7.50;90.03
44839;BME280;30576;42.098;24.876;2023-01-15T04:12:14;100341.38;;;7.62;89.01
44839;BME280;30576;42.098;24.876;2023-01-15T04:14:39;100345.53;;;7.32;89.27
44839;BME280;30576;42.098;24.876;2023-01-15T04:17:05;100342.16;;;7.50;89.28
44839;BME280;30576;42.098;24.876;2023-01-15T04:19:30;100346.69;;;7.70;88.42
44839;BME280;30576;42.098;24.876;2023-01-15T04:21:56;100337.81;;;7.54;88.37
44839;BME280;30576;42.098;24.876;2023-01-15T04:24:21;100345.63;;;7.43;88.75
44839;BME280;30576;42.098;24.876;2023-01-15T04:26:46;100346.34;;;7.28;88.74
44839;BME280;30576;42.098;24.876;2023-01-15T04:29:12;100345.53;;;7.32;89.05
44839;BME280;30576;42.098;24.876;2023-01-15T04:31:37;100348.16;;;7.32;88.83
44839;BME280;30576;42.098;24.876;2023-01-15T04:34:02;100348.97;;;7.27;89.28
44839;BME280;30576;42.098;24.876;2023-01-15T04:36:28;100355.94;;;7.22;89.63
44839;BME280;30576;42.098;24.876;2023-01-15T04:38:53;100359.34;;;7.13;89.05
44839;BME280;30576;42.098;24.876;2023-01-15T04:41:23;100354.09;;;7.13;89.57
44839;BME280;30576;42.098;24.876;2023-01-15T04:47:10;100354.78;;;6.96;89.94
44839;BME280;30576;42.098;24.876;2023-01-15T04:49:35;100368.50;;;6.71;90.66
44839;BME280;30576;42.098;24.876;2023-01-15T04:52:00;100365.66;;;6.51;92.55
44839;BME280;30576;42.098;24.876;2023-01-15T04:54:26;100366.50;;;6.50;92.95
44839;BME280;30576;42.098;24.876;2023-01-15T04:56:52;100363.00;;;6.48;93.68
44839;BME280;30576;42.098;24.876;2023-01-15T04:59:18;100365.63;;;6.49;93.70
44839;BME280;30576;42.098;24.876;2023-01-15T05:01:44;100369.13;;;6.50;93.51
44839;BME280;30576;42.098;24.876;2023-01-15T05:04:09;100373.56;;;6.54;93.44
44839;BME280;30576;42.098;24.876;2023-01-15T05:06:34;100369.19;;;6.56;92.70
44839;BME280;30576;42.098;24.876;2023-01-15T05:09:00;100365.09;;;6.78;92.00
44839;BME280;30576;42.098;24.876;2023-01-15T05:11:26;100369.28;;;6.63;92.32
44839;BME280;30576;42.098;24.876;2023-01-15T05:13:52;100370.16;;;6.62;92.29
44839;BME280;30576;42.098;24.876;2023-01-15T05:16:18;100377.06;;;6.54;92.70
44839;BME280;30576;42.098;24.876;2023-01-15T05:18:44;100372.84;;;6.70;91.97
44839;BME280;30576;42.098;24.876;2023-01-15T05:21:13;100383.41;;;6.76;91.77
44839;BME280;30576;42.098;24.876;2023-01-15T05:23:39;100381.75;;;6.81;91.34
44839;BME280;30576;42.098;24.876;2023-01-15T05:26:04;100391.38;;;6.84;91.28
44839;BME280;30576;42.098;24.876;2023-01-15T05:28:30;100381.81;;;6.86;91.12
44839;BME280;30576;42.098;24.876;2023-01-15T05:30:55;100387.84;;;6.80;90.78
44839;BME280;30576;42.098;24.876;2023-01-15T05:33:20;100384.31;;;6.77;91.81
44839;BME280;30576;42.098;24.876;2023-01-15T05:35:45;100384.44;;;6.88;91.47
44839;BME280;30576;42.098;24.876;2023-01-15T05:41:14;100379.22;;;6.91;90.80
44839;BME280;30576;42.098;24.876;2023-01-15T05:43:59;100381.06;;;7.01;90.49
44839;BME280;30576;42.098;24.876;2023-01-15T05:46:25;100391.53;;;6.98;90.28
44839;BME280;30576;42.098;24.876;2023-01-15T05:48:50;100389.72;;;6.91;90.07
44839;BME280;30576;42.098;24.876;2023-01-15T05:51:15;100391.25;;;6.75;90.78
44839;BME280;30576;42.098;24.876;2023-01-15T05:53:41;100391.06;;;6.58;91.58
44839;BME280;30576;42.098;24.876;2023-01-15T05:56:06;100397.44;;;6.77;91.12
44839;BME280;30576;42.098;24.876;2023-01-15T05:58:32;100390.50;;;6.82;90.74
44839;BME280;30576;42.098;24.876;2023-01-15T06:00:57;100390.94;;;6.47;92.06
44839;BME280;30576;42.098;24.876;2023-01-15T06:03:23;100400.66;;;6.56;92.31
44839;BME280;30576;42.098;24.876;2023-01-15T06:05:52;100390.28;;;6.63;91.62
44839;BME280;30576;42.098;24.876;2023-01-15T06:08:18;100391.16;;;6.66;91.95
44839;BME280;30576;42.098;24.876;2023-01-15T06:10:44;100392.16;;;6.74;91.39
44839;BME280;30576;42.098;24.876;2023-01-15T06:13:09;100395.75;;;6.84;90.50
44839;BME280;30576;42.098;24.876;2023-01-15T06:15:34;100387.91;;;6.85;89.74
44839;BME280;30576;42.098;24.876;2023-01-15T06:18:00;100396.69;;;6.90;89.63
44839;BME280;30576;42.098;24.876;2023-01-15T06:20:25;100393.28;;;6.97;89.74
44839;BME280;30576;42.098;24.876;2023-01-15T06:22:50;100392.59;;;7.14;88.64
44839;BME280;30576;42.098;24.876;2023-01-15T06:25:15;100398.75;;;7.19;88.31
44839;BME280;30576;42.098;24.876;2023-01-15T06:27:41;100391.81;;;7.26;87.94
44839;BME280;30576;42.098;24.876;2023-01-15T06:30:08;100397.00;;;7.20;87.04
44839;BME280;30576;42.098;24.876;2023-01-15T06:32:34;100392.59;;;7.15;87.41
44839;BME280;30576;42.098;24.876;2023-01-15T06:34:59;100387.25;;;7.06;87.38
44839;BME280;30576;42.098;24.876;2023-01-15T06:37:24;100399.25;;;6.86;88.59
44839;BME280;30576;42.098;24.876;2023-01-15T06:39:50;100401.84;;;6.82;89.32
44839;BME280;30576;42.098;24.876;2023-01-15T06:42:15;100397.41;;;6.75;89.08
44839;BME280;30576;42.098;24.876;2023-01-15T06:44:59;100389.72;;;6.91;89.11
44839;BME280;30576;42.098;24.876;2023-01-15T06:47:43;100397.47;;;6.80;89.74
44839;BME280;30576;42.098;24.876;2023-01-15T06:50:09;100400.91;;;6.77;89.76
44839;BME280;30576;42.098;24.876;2023-01-15T06:52:35;100392.19;;;6.77;89.37
44839;BME280;30576;42.098;24.876;2023-01-15T06:55:00;100402.75;;;6.83;88.60
44839;BME280;30576;42.098;24.876;2023-01-15T06:57:25;100401.75;;;6.75;89.26
44839;BME280;30576;42.098;24.876;2023-01-15T06:59:51;100403.53;;;6.77;89.58
44839;BME280;30576;42.098;24.876;2023-01-15T07:02:17;100405.44;;;6.88;90.32
44839;BME280;30576;42.098;24.876;2023-01-15T07:04:42;100398.50;;;6.96;89.71
44839;BME280;30576;42.098;24.876;2023-01-15T07:07:07;100401.97;;;6.95;89.65
44839;BME280;30576;42.098;24.876;2023-01-15T07:09:33;100407.84;;;6.71;91.20
44839;BME280;30576;42.098;24.876;2023-01-15T07:15:01;100404.59;;;6.95;90.90
44839;BME280;30576;42.098;24.876;2023-01-15T07:17:26;100397.50;;;6.83;91.04
44839;BME280;30576;42.098;24.876;2023-01-15T07:19:51;100407.06;;;6.81;90.75
44839;BME280;30576;42.098;24.876;2023-01-15T07:22:17;100407.25;;;6.98;90.69
44839;BME280;30576;42.098;24.876;2023-01-15T07:24:42;100410.78;;;6.97;90.58
44839;BME280;30576;42.098;24.876;2023-01-15T07:27:07;100408.00;;;6.85;90.22
44839;BME280;30576;42.098;24.876;2023-01-15T07:29:33;100409.13;;;7.07;90.52
44839;BME280;30576;42.098;24.876;2023-01-15T07:31:58;100410.09;;;7.18;89.55
44839;BME280;30576;42.098;24.876;2023-01-15T07:34:24;100414.31;;;7.02;89.37
44839;BME280;30576;42.098;24.876;2023-01-15T07:36:49;100416.84;;;6.94;89.46
44839;BME280;30576;42.098;24.876;2023-01-15T07:39:15;100420.44;;;7.03;89.39
44839;BME280;30576;42.098;24.876;2023-01-15T07:41:40;100423.75;;;6.86;89.72
44839;BME280;30576;42.098;24.876;2023-01-15T07:44:24;100413.28;;;6.86;90.50
44839;BME280;30576;42.098;24.876;2023-01-15T07:47:14;100411.16;;;6.57;91.25
44839;BME280;30576;42.098;24.876;2023-01-15T07:49:59;100418.84;;;6.43;92.69
44839;BME280;30576;42.098;24.876;2023-01-15T07:52:25;100415.78;;;6.75;92.04
44839;BME280;30576;42.098;24.876;2023-01-15T07:54:50;100422.69;;;6.70;91.89
44839;BME280;30576;42.098;24.876;2023-01-15T07:57:19;100421.00;;;6.75;91.57
44839;BME280;30576;42.098;24.876;2023-01-15T07:59:45;100420.19;;;6.81;91.66
44839;BME280;30576;42.098;24.876;2023-01-15T08:02:10;100423.84;;;6.92;91.38
44839;BME280;30576;42.098;24.876;2023-01-15T08:04:37;100430.81;;;6.93;91.16
44839;BME280;30576;42.098;24.876;2023-01-15T08:07:02;100430.81;;;6.93;90.65
44839;BME280;30576;42.098;24.876;2023-01-15T08:09:28;100429.94;;;6.91;91.19
44839;BME280;30576;42.098;24.876;2023-01-15T08:11:54;100431.16;;;7.26;90.43
44839;BME280;30576;42.098;24.876;2023-01-15T08:14:38;100434.59;;;7.17;90.44
44839;BME280;30576;42.098;24.876;2023-01-15T08:17:22;100439.72;;;7.06;90.16
44839;BME280;30576;42.098;24.876;2023-01-15T08:19:47;100439.63;;;6.97;91.28
44839;BME280;30576;42.098;24.876;2023-01-15T08:22:12;100437.19;;;7.14;90.93
44839;BME280;30576;42.098;24.876;2023-01-15T08:24:37;100444.84;;;6.95;90.68
44839;BME280;30576;42.098;24.876;2023-01-15T08:27:03;100439.38;;;6.77;91.02
44839;BME280;30576;42.098;24.876;2023-01-15T08:29:28;100449.72;;;6.65;92.43
44839;BME280;30576;42.098;24.876;2023-01-15T08:31:54;100442.88;;;6.77;91.93
44839;BME280;30576;42.098;24.876;2023-01-15T08:34:19;100437.03;;;6.98;91.70
44839;BME280;30576;42.098;24.876;2023-01-15T08:36:45;100439.38;;;6.77;92.11
44839;BME280;30576;42.098;24.876;2023-01-15T08:39:11;100436.75;;;6.75;93.38
44839;BME280;30576;42.098;24.876;2023-01-15T08:44:39;100434.16;;;6.77;93.61
44839;BME280;30576;42.098;24.876;2023-01-15T08:47:04;100429.84;;;6.84;93.23
44839;BME280;30576;42.098;24.876;2023-01-15T08:49:30;100425.41;;;6.79;93.37
44839;BME280;30576;42.098;24.876;2023-01-15T08:54:57;100426.31;;;6.80;94.49
44839;BME280;30576;42.098;24.876;2023-01-15T08:57:23;100425.38;;;6.76;93.05
44839;BME280;30576;42.098;24.876;2023-01-15T08:59:48;100417.66;;;6.89;94.19
44839;BME280;30576;42.098;24.876;2023-01-15T09:02:13;100421.31;;;7.00;92.03
44839;BME280;30576;42.098;24.876;2023-01-15T09:04:39;100415.94;;;6.89;92.08
44839;BME280;30576;42.098;24.876;2023-01-15T09:07:04;100415.03;;;6.90;92.04
44839;BME280;30576;42.098;24.876;2023-01-15T09:12:32;100415.00;;;6.87;91.37
44839;BME280;30576;42.098;24.876;2023-01-15T09:14:57;100409.25;;;7.21;91.58
44839;BME280;30576;42.098;24.876;2023-01-15T09:17:22;100404.97;;;7.30;91.21
44839;BME280;30576;42.098;24.876;2023-01-15T09:19:48;100406.16;;;7.63;90.64
44839;BME280;30576;42.098;24.876;2023-01-15T09:22:13;100395.41;;;7.35;89.73
44839;BME280;30576;42.098;24.876;2023-01-15T09:24:38;100397.09;;;7.29;89.06
44839;BME280;30576;42.098;24.876;2023-01-15T09:27:04;100391.13;;;7.47;89.66
44839;BME280;30576;42.098;24.876;2023-01-15T09:32:32;100392.03;;;7.50;88.57
44839;BME280;30576;42.098;24.876;2023-01-15T09:34:57;100390.16;;;7.34;88.40
44839;BME280;30576;42.098;24.876;2023-01-15T09:37:24;100387.66;;;7.49;89.00
44839;BME280;30576;42.098;24.876;2023-01-15T09:42:54;100383.84;;;7.15;89.89
44839;BME280;30576;42.098;24.876;2023-01-15T09:45:24;100379.41;;;7.09;89.87
44839;BME280;30576;42.098;24.876;2023-01-15T09:56:25;100379.69;;;7.39;89.94
44839;BME280;30576;42.098;24.876;2023-01-15T10:01:54;100365.84;;;7.58;88.17
44839;BME280;30576;42.098;24.876;2023-01-15T10:09:31;100357.84;;;7.43;88.91
44839;BME280;30576;42.098;24.876;2023-01-15T10:12:02;100350.09;;;7.61;87.96
44839;BME280;30576;42.098;24.876;2023-01-15T10:18:10;100339.41;;;7.35;87.10
44839;BME280;30576;42.098;24.876;2023-01-15T10:20:48;100331.72;;;7.60;85.82
44839;BME280;30576;42.098;24.876;2023-01-15T10:25:41;100334.41;;;7.70;85.55
44839;BME280;30576;42.098;24.876;2023-01-15T10:28:30;100326.50;;;7.63;86.37
44839;BME280;30576;42.098;24.876;2023-01-15T10:30:56;100323.81;;;7.57;86.71
44839;BME280;30576;42.098;24.876;2023-01-15T10:36:06;100318.81;;;7.97;85.57
44839;BME280;30576;42.098;24.876;2023-01-15T10:43:52;100304.09;;;8.28;84.65
44839;BME280;30576;42.098;24.876;2023-01-15T10:46:23;100295.22;;;8.07;84.63
44839;BME280;30576;42.098;24.876;2023-01-15T10:49:00;100289.97;;;8.07;82.42
44839;BME280;30576;42.098;24.876;2023-01-15T10:51:40;100290.97;;;8.31;82.40
44839;BME280;30576;42.098;24.876;2023-01-15T10:59:19;100277.81;;;8.27;81.48
44839;BME280;30576;42.098;24.876;2023-01-15T11:01:49;100276.88;;;8.14;81.90
44839;BME280;30576;42.098;24.876;2023-01-15T11:04:16;100275.16;;;8.20;81.65
44839;BME280;30576;42.098;24.876;2023-01-15T11:06:43;100260.31;;;8.33;82.32
44839;BME280;30576;42.098;24.876;2023-01-15T11:09:15;100270.75;;;8.15;80.23
44839;BME280;30576;42.098;24.876;2023-01-15T11:11:49;100257.56;;;8.02;81.31
44839;BME280;30576;42.098;24.876;2023-01-15T11:17:30;100253.22;;;8.12;80.99
44839;BME280;30576;42.098;24.876;2023-01-15T11:20:26;100245.38;;;8.28;81.02
44839;BME280;30576;42.098;24.876;2023-01-15T11:22:53;100244.50;;;8.25;82.65
44839;BME280;30576;42.098;24.876;2023-01-15T11:25:29;100242.69;;;8.07;81.76
44839;BME280;30576;42.098;24.876;2023-01-15T11:27:54;100236.66;;;8.38;83.43
44839;BME280;30576;42.098;24.876;2023-01-15T11:30:27;100235.72;;;8.19;81.72
44839;BME280;30576;42.098;24.876;2023-01-15T11:32:56;100226.88;;;7.97;82.19
44839;BME280;30576;42.098;24.876;2023-01-15T11:35:22;100221.63;;;7.98;83.68
44839;BME280;30576;42.098;24.876;2023-01-15T11:37:48;100222.59;;;8.17;83.42
44839;BME280;30576;42.098;24.876;2023-01-15T11:40:17;100220.81;;;8.13;82.30
44839;BME280;30576;42.098;24.876;2023-01-15T11:42:46;100226.91;;;8.04;81.96
44839;BME280;30576;42.098;24.876;2023-01-15T11:45:31;100227.00;;;8.41;82.17
44839;BME280;30576;42.098;24.876;2023-01-15T11:48:16;100226.09;;;8.25;79.96
44839;BME280;30576;42.098;24.876;2023-01-15T11:51:05;100226.06;;;8.09;80.29
44839;BME280;30576;42.098;24.876;2023-01-15T11:53:34;100209.44;;;8.16;81.64
44839;BME280;30576;42.098;24.876;2023-01-15T11:59:11;100206.88;;;8.36;82.37
44839;BME280;30576;42.098;24.876;2023-01-15T12:01:44;100208.59;;;8.32;81.13
44839;BME280;30576;42.098;24.876;2023-01-15T12:04:23;100206.88;;;8.37;81.72
44839;BME280;30576;42.098;24.876;2023-01-15T12:06:50;100196.41;;;8.48;81.06
44839;BME280;30576;42.098;24.876;2023-01-15T12:15:08;100191.09;;;8.37;80.21
44839;BME280;30576;42.098;24.876;2023-01-15T12:22:22;100188.53;;;8.68;79.40
44839;BME280;30576;42.098;24.876;2023-01-15T12:25:02;100188.47;;;8.34;79.56
44839;BME280;30576;42.098;24.876;2023-01-15T12:35:43;100185.00;;;8.51;81.15
44839;BME280;30576;42.098;24.876;2023-01-15T12:38:12;100178.81;;;8.33;81.25
44839;BME280;30576;42.098;24.876;2023-01-15T12:40:44;100176.22;;;8.46;80.76
44839;BME280;30576;42.098;24.876;2023-01-15T12:46:18;100170.91;;;8.30;80.52
44839;BME280;30576;42.098;24.876;2023-01-15T12:48:51;100170.06;;;8.36;80.60
44839;BME280;30576;42.098;24.876;2023-01-15T12:52:07;100163.91;;;8.40;81.58
44839;BME280;30576;42.098;24.876;2023-01-15T12:54:09;100165.66;;;8.36;81.28
44839;BME280;30576;42.098;24.876;2023-01-15T13:00:02;100164.78;;;8.16;82.43
44839;BME280;30576;42.098;24.876;2023-01-15T13:05:28;100158.63;;;8.29;82.14
44839;BME280;30576;42.098;24.876;2023-01-15T13:08:08;100155.16;;;8.36;82.60
44839;BME280;30576;42.098;24.876;2023-01-15T13:10:36;100155.16;;;8.35;81.84
44839;BME280;30576;42.098;24.876;2023-01-15T13:16:15;100151.66;;;8.34;80.69
44839;BME280;30576;42.098;24.876;2023-01-15T13:32:51;100143.78;;;8.28;82.62
44839;BME280;30576;42.098;24.876;2023-01-15T13:38:24;100135.84;;;8.03;82.83
44839;BME280;30576;42.098;24.876;2023-01-15T13:40:51;100152.47;;;8.02;82.96
44839;BME280;30576;42.098;24.876;2023-01-15T13:43:23;100142.88;;;8.32;82.45
44839;BME280;30576;42.098;24.876;2023-01-15T13:45:51;100145.56;;;8.46;81.83
44839;BME280;30576;42.098;24.876;2023-01-15T13:48:27;100146.44;;;8.44;80.63
44839;BME280;30576;42.098;24.876;2023-01-15T13:50:54;100147.25;;;8.27;80.59
44839;BME280;30576;42.098;24.876;2023-01-15T13:55:58;100141.91;;;7.82;83.02
44839;BME280;30576;42.098;24.876;2023-01-15T13:58:27;100138.41;;;7.88;82.89
44839;BME280;30576;42.098;24.876;2023-01-15T14:03:37;100127.03;;;7.92;82.90
44839;BME280;30576;42.098;24.876;2023-01-15T14:06:07;100133.22;;;8.05;82.98
44839;BME280;30576;42.098;24.876;2023-01-15T14:08:37;100128.84;;;8.12;81.76
44839;BME280;30576;42.098;24.876;2023-01-15T14:11:03;100121.75;;;7.83;82.21
44839;BME280;30576;42.098;24.876;2023-01-15T14:13:44;100119.13;;;7.80;83.57
44839;BME280;30576;42.098;24.876;2023-01-15T14:18:55;100130.56;;;7.91;82.61
44839;BME280;30576;42.098;24.876;2023-01-15T14:29:48;100119.13;;;7.87;82.79
44839;BME280;30576;42.098;24.876;2023-01-15T14:32:18;100114.81;;;8.03;81.42
44839;BME280;30576;42.098;24.876;2023-01-15T14:34:56;100110.41;;;7.96;82.50
44839;BME280;30576;42.098;24.876;2023-01-15T14:37:23;100109.50;;;7.85;83.19
44839;BME280;30576;42.098;24.876;2023-01-15T14:39:55;100121.75;;;7.89;82.57
44839;BME280;30576;42.098;24.876;2023-01-15T14:42:29;100113.91;;;7.95;82.60
44839;BME280;30576;42.098;24.876;2023-01-15T14:53:05;100115.66;;;7.95;82.20
44839;BME280;30576;42.098;24.876;2023-01-15T14:55:31;100113.81;;;7.69;83.29
44839;BME280;30576;42.098;24.876;2023-01-15T14:57:59;100119.91;;;7.54;84.16
44839;BME280;30576;42.098;24.876;2023-01-15T15:00:26;100115.50;;;7.45;84.69
44839;BME280;30576;42.098;24.876;2023-01-15T15:02:53;100114.75;;;7.79;84.20
44839;BME280;30576;42.098;24.876;2023-01-15T15:08:22;100126.06;;;7.65;83.28
44839;BME280;30576;42.098;24.876;2023-01-15T15:10:52;100125.19;;;7.62;84.69
44839;BME280;30576;42.098;24.876;2023-01-15T15:13:34;100125.16;;;7.52;84.48
44839;BME280;30576;42.098;24.876;2023-01-15T15:16:18;100125.22;;;7.66;84.80
44839;BME280;30576;42.098;24.876;2023-01-15T15:18:54;100120.88;;;7.84;83.86
44839;BME280;30576;42.098;24.876;2023-01-15T15:21:28;100132.28;;;7.89;82.90
44839;BME280;30576;42.098;24.876;2023-01-15T15:26:33;100130.50;;;7.79;83.94
44839;BME280;30576;42.098;24.876;2023-01-15T15:28:59;100133.16;;;7.89;82.35
44839;BME280;30576;42.098;24.876;2023-01-15T15:31:25;100131.38;;;7.84;83.52
44839;BME280;30576;42.098;24.876;2023-01-15T15:33:52;100121.75;;;7.84;82.72
44839;BME280;30576;42.098;24.876;2023-01-15T15:36:18;100133.16;;;7.85;83.08
44839;BME280;30576;42.098;24.876;2023-01-15T15:41:46;100131.44;;;8.02;82.45
44839;BME280;30576;42.098;24.876;2023-01-15T15:44:34;100131.44;;;7.99;81.64
44839;BME280;30576;42.098;24.876;2023-01-15T15:47:21;100129.66;;;7.98;81.62
44839;BME280;30576;42.098;24.876;2023-01-15T15:50:05;100127.91;;;7.89;81.82
44839;BME280;30576;42.098;24.876;2023-01-15T15:52:32;100125.28;;;7.82;81.74
44839;BME280;30576;42.098;24.876;2023-01-15T15:54:58;100127.00;;;7.83;81.25
44839;BME280;30576;42.098;24.876;2023-01-15T15:57:24;100128.78;;;7.93;81.24
44839;BME280;30576;42.098;24.876;2023-01-15T16:02:54;100139.22;;;7.68;82.21
44839;BME280;30576;42.098;24.876;2023-01-15T16:05:26;100137.47;;;7.70;81.99
44839;BME280;30576;42.098;24.876;2023-01-15T16:07:54;100137.41;;;7.55;82.39
44839;BME280;30576;42.098;24.876;2023-01-15T16:15:55;100149.81;;;7.96;80.93
44839;BME280;30576;42.098;24.876;2023-01-15T16:18:24;100150.63;;;7.81;80.44
44839;BME280;30576;42.098;24.876;2023-01-15T16:20:50;100160.28;;;7.84;80.78